Time;durP1;ratioP1;P1;durP2;ratioP2;P2;SDS_P1;SDS_P2;PMS_P1;PMS_P2;Temp;Humidity;BMP_temperature;BMP_pressure;BME280_temperature;BME280_humidity;BME280_pressure;Samples;Min_cycle;Max_cycle;Signal;HPM_P1;HPM_P2
2023/08/07 00:01:15;;;;;;;3.90;1.38;;;;;;;12.66;100.00;98425.44;4121863;28;20210;-47
2023/08/07 00:03:18;;;;;;;1.45;1.30;;;;;;;12.52;100.00;98436.06;4123590;28;20673;-47
2023/08/07 00:05:20;;;;;;;2.80;1.23;;;;;;;12.48;100.00;98439.59;4123163;28;20229;-50
2023/08/07 00:07:24;;;;;;;4.18;1.30;;;;;;;12.56;100.00;98441.84;4127979;28;20265;-47
2023/08/07 00:09:25;;;;;;;5.10;1.63;;;;;;;12.51;100.00;98434.38;4118397;28;20210;-46
2023/08/07 00:11:28;;;;;;;7.07;1.33;;;;;;;12.44;100.00;98436.53;4126656;28;20218;-48
2023/08/07 00:13:29;;;;;;;3.60;1.45;;;;;;;12.42;100.00;98435.97;4127053;28;20256;-46
2023/08/07 00:15:33;;;;;;;3.80;1.85;;;;;;;12.48;100.00;98440.41;4124320;28;20754;-49
2023/08/07 00:17:35;;;;;;;4.45;1.40;;;;;;;12.56;100.00;98444.59;4122564;28;20551;-46
2023/08/07 00:19:36;;;;;;;4.20;1.60;;;;;;;12.57;100.00;98449.00;4127066;28;20206;-46
2023/08/07 00:21:42;;;;;;;2.35;1.30;;;;;;;12.40;100.00;98443.66;4127638;28;20645;-47
2023/08/07 00:23:43;;;;;;;3.15;1.50;;;;;;;12.33;100.00;98442.22;4120996;28;20596;-48
2023/08/07 00:25:45;;;;;;;2.60;2.28;;;;;;;12.31;100.00;98449.91;4135744;28;20227;-47
2023/08/07 00:27:47;;;;;;;3.97;1.60;;;;;;;12.30;100.00;98443.56;4119565;28;20206;-46
2023/08/07 00:29:48;;;;;;;2.75;1.23;;;;;;;12.43;100.00;98445.88;4119624;28;20240;-47
2023/08/07 00:31:50;;;;;;;2.35;1.10;;;;;;;12.41;100.00;98444.47;4118134;28;20237;-47
2023/08/07 00:33:54;;;;;;;6.57;2.17;;;;;;;12.29;100.00;98441.91;4114117;28;20214;-47
2023/08/07 00:35:56;;;;;;;3.33;1.48;;;;;;;12.26;100.00;98452.59;4118958;28;20223;-47
2023/08/07 00:37:57;;;;;;;2.35;1.90;;;;;;;12.33;100.00;98440.31;4118049;28;20257;-46
2023/08/07 00:39:59;;;;;;;2.60;1.40;;;;;;;12.38;100.00;98439.53;4127142;28;20338;-47
2023/08/07 00:42:01;;;;;;;5.30;2.05;;;;;;;12.28;100.00;98445.75;4120195;28;20296;-47
2023/08/07 00:44:03;;;;;;;4.32;1.45;;;;;;;12.27;100.00;98444.13;4121319;28;20267;-47
2023/08/07 00:46:05;;;;;;;4.45;1.27;;;;;;;12.24;100.00;98450.09;4118225;28;20249;-47
2023/08/07 00:48:07;;;;;;;1.90;1.70;;;;;;;12.20;100.00;98448.16;4121520;28;20217;-47
2023/08/07 00:50:09;;;;;;;3.63;1.75;;;;;;;12.20;100.00;98443.50;4126061;28;20320;-47
2023/08/07 00:52:10;;;;;;;2.35;1.33;;;;;;;12.11;100.00;98441.50;4120284;28;21269;-47
2023/08/07 00:54:15;;;;;;;4.95;2.25;;;;;;;12.15;100.00;98448.09;4117874;28;20214;-47
2023/08/07 00:56:17;;;;;;;4.50;1.42;;;;;;;12.06;100.00;98447.78;4127060;28;20225;-47
2023/08/07 00:58:18;;;;;;;2.53;1.63;;;;;;;12.19;100.00;98449.25;4122478;28;21164;-47
2023/08/07 01:00:20;;;;;;;2.15;1.10;;;;;;;12.17;100.00;98446.75;4121643;28;20207;-47
2023/08/07 01:02:22;;;;;;;6.35;1.42;;;;;;;12.06;100.00;98458.75;4128355;28;20230;-47
2023/08/07 01:04:24;;;;;;;6.43;1.50;;;;;;;12.11;100.00;98461.50;4105491;28;20211;-47
2023/08/07 01:06:25;;;;;;;2.85;1.60;;;;;;;12.13;100.00;98453.88;4124307;28;20240;-47
2023/08/07 01:08:27;;;;;;;4.53;1.50;;;;;;;12.00;100.00;98453.47;4117126;28;20223;-47
2023/08/07 01:10:49;;;;;;;4.57;1.30;;;;;;;12.05;100.00;98457.06;4123290;28;20229;-49
2023/08/07 01:12:57;;;;;;;2.00;1.45;;;;;;;11.99;100.00;98462.78;4117356;28;20238;-46
2023/08/07 01:15:08;;;;;;;2.40;1.40;;;;;;;12.09;100.00;98447.25;4120968;28;20265;-47
2023/08/07 01:17:14;;;;;;;3.03;1.92;;;;;;;12.06;100.00;98453.25;4119544;28;20289;-47
2023/08/07 01:19:27;;;;;;;2.00;1.52;;;;;;;12.00;100.00;98456.22;4121206;28;20206;-48
2023/08/07 01:21:29;;;;;;;2.08;1.20;;;;;;;11.97;100.00;98451.25;4114047;28;20210;-51
2023/08/07 01:23:31;;;;;;;5.85;2.20;;;;;;;11.93;100.00;98453.69;4126816;28;20216;-46
2023/08/07 01:25:33;;;;;;;3.22;1.60;;;;;;;11.87;100.00;98448.41;4120559;28;20206;-46
2023/08/07 01:27:46;;;;;;;1.65;1.45;;;;;;;11.92;100.00;98452.00;4110292;28;20241;-46
2023/08/07 01:29:55;;;;;;;5.72;1.52;;;;;;;11.87;100.00;98457.47;4124487;28;20218;-48
2023/08/07 01:31:58;;;;;;;2.72;1.42;;;;;;;11.85;100.00;98456.06;4118197;28;20233;-47
2023/08/07 01:34:08;;;;;;;8.05;1.85;;;;;;;11.86;100.00;98463.22;4126985;28;20199;-47
2023/08/07 01:36:10;;;;;;;1.77;1.30;;;;;;;11.91;100.00;98460.53;4115807;28;20229;-48
2023/08/07 01:38:13;;;;;;;3.08;1.38;;;;;;;11.97;100.00;98465.78;4126785;28;20727;-48
2023/08/07 01:40:15;;;;;;;2.03;1.30;;;;;;;11.79;100.00;98457.94;4101807;28;20617;-48
2023/08/07 01:42:17;;;;;;;5.28;1.40;;;;;;;11.87;100.00;98454.72;4109519;28;20638;-47
2023/08/07 01:44:19;;;;;;;1.42;1.33;;;;;;;11.91;100.00;98461.34;4128012;28;20698;-46
2023/08/07 01:46:20;;;;;;;2.92;1.75;;;;;;;11.91;100.00;98466.00;4126491;28;20247;-47
2023/08/07 01:48:22;;;;;;;3.10;1.70;;;;;;;11.90;100.00;98459.69;4126928;28;20744;-46
2023/08/07 01:50:27;;;;;;;2.78;1.63;;;;;;;11.94;100.00;98463.56;4124153;28;20213;-46
2023/08/07 01:52:29;;;;;;;2.65;1.50;;;;;;;11.88;100.00;98461.88;4134314;28;20232;-45
2023/08/07 01:54:31;;;;;;;6.07;1.27;;;;;;;11.88;100.00;98472.00;4118049;28;20572;-46
2023/08/07 01:56:32;;;;;;;5.28;1.90;;;;;;;11.79;100.00;98468.91;4120956;28;20235;-47
2023/08/07 01:58:34;;;;;;;2.33;1.75;;;;;;;11.83;100.00;98475.50;4118792;28;20210;-47
2023/08/07 02:00:36;;;;;;;2.88;1.50;;;;;;;11.82;100.00;98476.59;4119237;28;20207;-47
2023/08/07 02:02:38;;;;;;;1.40;1.30;;;;;;;11.85;100.00;98484.31;4125265;28;20255;-47
2023/08/07 02:04:40;;;;;;;3.03;1.92;;;;;;;11.81;100.00;98483.19;4117747;28;20878;-46
2023/08/07 02:06:41;;;;;;;7.57;2.90;;;;;;;11.84;100.00;98482.66;4121427;28;20214;-47
2023/08/07 02:08:43;;;;;;;3.80;1.75;;;;;;;11.74;100.00;98482.56;4126289;28;20245;-47
2023/08/07 02:10:45;;;;;;;2.95;1.60;;;;;;;11.70;100.00;98478.66;4126151;28;20240;-46
2023/08/07 02:12:46;;;;;;;2.53;1.83;;;;;;;11.70;100.00;98481.41;4119058;28;20229;-47
2023/08/07 02:14:48;;;;;;;7.82;1.92;;;;;;;11.72;100.00;98479.22;4118330;28;21786;-47
2023/08/07 02:16:50;;;;;;;5.45;2.13;;;;;;;11.64;100.00;98482.44;4125904;28;20222;-46
2023/08/07 02:18:52;;;;;;;2.63;1.50;;;;;;;11.76;100.00;98485.88;4119292;28;20808;-47
2023/08/07 02:20:53;;;;;;;5.20;1.85;;;;;;;11.70;100.00;98492.38;4124592;28;20214;-48
2023/08/07 02:22:55;;;;;;;3.67;1.58;;;;;;;11.66;100.00;98491.25;4123752;28;20230;-47
2023/08/07 02:24:57;;;;;;;2.83;1.85;;;;;;;11.70;100.00;98492.38;4119719;28;21417;-47
2023/08/07 02:26:58;;;;;;;2.60;1.73;;;;;;;11.67;100.00;98484.69;4101867;28;20207;-48
2023/08/07 02:29:00;;;;;;;3.75;2.10;;;;;;;11.76;100.00;98491.34;4123084;28;20665;-46
2023/08/07 02:31:02;;;;;;;3.75;1.92;;;;;;;11.71;100.00;98498.69;4122856;28;20327;-47
2023/08/07 02:33:03;;;;;;;6.60;2.05;;;;;;;11.76;100.00;98496.81;4126447;28;20238;-48
2023/08/07 02:35:05;;;;;;;4.68;1.60;;;;;;;11.75;100.00;98494.34;4121677;28;20297;-47
2023/08/07 02:37:07;;;;;;;6.13;2.03;;;;;;;11.72;100.00;98495.69;4121913;28;20226;-46
2023/08/07 02:39:09;;;;;;;4.70;1.77;;;;;;;11.71;100.00;98491.28;4108926;28;20206;-46
2023/08/07 02:41:10;;;;;;;3.92;1.65;;;;;;;11.76;100.00;98490.53;4127990;28;20202;-47
2023/08/07 02:43:12;;;;;;;6.00;2.35;;;;;;;11.77;100.00;98498.47;4122177;28;20614;-48
2023/08/07 02:45:14;;;;;;;10.38;1.80;;;;;;;11.81;100.00;98498.78;4128638;28;20214;-47
2023/08/07 02:47:16;;;;;;;2.65;1.95;;;;;;;11.71;100.00;98494.03;4128899;28;20206;-46
2023/08/07 02:49:17;;;;;;;5.25;2.08;;;;;;;11.78;100.00;98494.66;4135882;28;20209;-46
2023/08/07 02:51:19;;;;;;;4.10;1.85;;;;;;;11.81;100.00;98488.66;4134738;28;20260;-47
2023/08/07 02:53:21;;;;;;;4.95;2.53;;;;;;;11.80;100.00;98489.75;4119565;28;20210;-46
2023/08/07 02:55:22;;;;;;;4.68;2.30;;;;;;;11.71;100.00;98488.53;4123390;28;20708;-48
2023/08/07 02:57:25;;;;;;;4.65;2.00;;;;;;;11.75;100.00;98489.69;4121607;28;20451;-48
2023/08/07 02:59:26;;;;;;;8.80;2.90;;;;;;;11.78;100.00;98488.34;4120101;28;20778;-48
2023/08/07 03:01:29;;;;;;;2.90;1.58;;;;;;;11.71;100.00;98493.22;4112569;28;20211;-48
2023/08/07 03:03:30;;;;;;;3.15;2.03;;;;;;;11.77;100.00;98489.44;4123626;28;20213;-48
2023/08/07 03:05:32;;;;;;;3.67;1.55;;;;;;;11.75;100.00;98494.34;4122944;28;20217;-47
2023/08/07 03:07:34;;;;;;;4.50;2.08;;;;;;;11.76;100.00;98496.81;4120544;28;20219;-47
2023/08/07 03:09:36;;;;;;;3.00;1.75;;;;;;;11.75;100.00;98500.66;4125605;28;20237;-47
2023/08/07 03:11:37;;;;;;;5.45;2.17;;;;;;;11.61;100.00;98499.41;4109318;28;20238;-47
2023/08/07 03:13:39;;;;;;;4.70;1.85;;;;;;;11.72;100.00;98501.16;4128308;28;20213;-47
2023/08/07 03:15:41;;;;;;;2.30;1.60;;;;;;;11.78;100.00;98500.13;4128301;28;20210;-47
2023/08/07 03:17:42;;;;;;;3.40;1.98;;;;;;;11.77;100.00;98498.47;4119654;28;20221;-47
2023/08/07 03:19:44;;;;;;;2.65;1.63;;;;;;;11.83;100.00;98507.59;4122245;28;20210;-47
2023/08/07 03:21:46;;;;;;;5.07;2.15;;;;;;;11.85;100.00;98505.44;4121854;28;20268;-47
2023/08/07 03:23:48;;;;;;;2.42;1.55;;;;;;;11.87;100.00;98504.09;4134924;28;20259;-47
2023/08/07 03:25:50;;;;;;;3.30;1.85;;;;;;;11.93;100.00;98503.06;4126252;28;20206;-48
2023/08/07 03:27:59;;;;;;;3.20;1.90;;;;;;;11.91;100.00;98502.47;4128143;28;20301;-48
2023/08/07 03:30:01;;;;;;;5.13;1.98;;;;;;;11.90;100.00;98509.03;4127853;28;20213;-47
2023/08/07 03:32:03;;;;;;;2.75;1.83;;;;;;;11.85;100.00;98508.16;4126887;28;20281;-48
2023/08/07 03:34:04;;;;;;;4.30;2.00;;;;;;;11.85;100.00;98505.44;4115795;28;20199;-46
2023/08/07 03:36:06;;;;;;;1.75;1.65;;;;;;;11.89;100.00;98507.38;4118092;28;20231;-48
2023/08/07 03:38:08;;;;;;;8.45;1.63;;;;;;;11.90;100.00;98508.22;4121145;28;20214;-47
2023/08/07 03:40:10;;;;;;;2.80;1.60;;;;;;;11.94;100.00;98503.88;4112646;28;20214;-48
2023/08/07 03:42:12;;;;;;;9.95;2.92;;;;;;;11.85;100.00;98508.97;4129168;28;20234;-47
2023/08/07 03:44:13;;;;;;;3.78;1.73;;;;;;;11.74;100.00;98504.50;4122692;28;20951;-48
2023/08/07 03:46:15;;;;;;;4.57;1.75;;;;;;;11.79;100.00;98501.81;4104769;28;20208;-46
2023/08/07 03:48:17;;;;;;;2.30;1.55;;;;;;;11.78;100.00;98500.13;4119838;28;20256;-47
2023/08/07 03:50:19;;;;;;;3.67;1.98;;;;;;;11.77;100.00;98498.47;4118212;28;20668;-47
2023/08/07 03:52:20;;;;;;;8.38;2.05;;;;;;;11.69;100.00;98501.69;4121991;28;20230;-47
2023/08/07 03:54:22;;;;;;;6.20;2.08;;;;;;;11.72;100.00;98500.34;4123406;28;20214;-48
2023/08/07 03:56:24;;;;;;;1.75;1.38;;;;;;;11.67;100.00;98503.88;4126466;28;20234;-47
2023/08/07 03:58:26;;;;;;;5.53;1.90;;;;;;;11.69;100.00;98501.69;4120332;28;20211;-47
2023/08/07 04:00:27;;;;;;;4.72;1.85;;;;;;;11.76;100.00;98507.78;4119330;28;20293;-48
2023/08/07 04:02:30;;;;;;;4.47;3.05;;;;;;;11.68;100.00;98510.16;4119286;28;20230;-47
2023/08/07 04:04:31;;;;;;;8.38;2.25;;;;;;;11.68;100.00;98505.53;4135346;28;20217;-49
2023/08/07 04:06:33;;;;;;;3.55;2.08;;;;;;;11.77;100.00;98509.44;4117185;28;20892;-47
2023/08/07 04:08:35;;;;;;;3.40;1.92;;;;;;;11.74;100.00;98511.88;4117760;28;20214;-47
2023/08/07 04:10:37;;;;;;;11.82;5.07;;;;;;;11.70;100.00;98508.81;4127084;28;20253;-47
2023/08/07 04:12:38;;;;;;;3.65;1.98;;;;;;;11.71;100.00;98507.72;4116597;28;20258;-47
2023/08/07 04:14:40;;;;;;;6.15;2.42;;;;;;;11.68;100.00;98507.41;4121469;28;20207;-48
2023/08/07 04:16:42;;;;;;;1.98;1.52;;;;;;;11.66;100.00;98515.94;4122620;28;20222;-48
2023/08/07 04:18:44;;;;;;;2.47;1.55;;;;;;;11.63;100.00;98513.69;4130021;28;20265;-49
2023/08/07 04:20:53;;;;;;;4.13;1.83;;;;;;;11.60;100.00;98514.22;4127166;28;20234;-46
2023/08/07 04:22:55;;;;;;;2.30;2.05;;;;;;;11.63;100.00;98513.69;4103554;28;20234;-46
2023/08/07 04:24:57;;;;;;;3.00;2.20;;;;;;;11.63;100.00;98510.13;4126844;28;20584;-47
2023/08/07 04:26:59;;;;;;;2.53;2.00;;;;;;;11.61;100.00;98510.38;4118308;28;20206;-48
2023/08/07 04:29:00;;;;;;;5.50;2.53;;;;;;;11.72;100.00;98505.84;4120193;28;20261;-49
2023/08/07 04:31:02;;;;;;;1.67;1.48;;;;;;;11.74;100.00;98509.97;4118979;28;20205;-47
2023/08/07 04:33:04;;;;;;;5.05;2.22;;;;;;;11.69;100.00;98506.34;4117189;28;20723;-47
2023/08/07 04:35:07;;;;;;;3.22;2.20;;;;;;;11.69;100.00;98520.03;4126168;28;20242;-47
2023/08/07 04:37:09;;;;;;;4.28;1.88;;;;;;;11.61;100.00;98509.53;4119376;28;20226;-46
2023/08/07 04:39:12;;;;;;;2.50;2.30;;;;;;;11.67;100.00;98514.84;4119206;28;20210;-47
2023/08/07 04:41:14;;;;;;;3.00;1.83;;;;;;;11.64;100.00;98515.31;4120289;28;20213;-46
2023/08/07 04:43:17;;;;;;;4.75;1.90;;;;;;;11.62;100.00;98512.03;4102810;28;20319;-46
2023/08/07 04:45:19;;;;;;;3.35;1.90;;;;;;;11.67;100.00;98520.31;4119413;28;20218;-47
2023/08/07 04:47:21;;;;;;;12.77;2.53;;;;;;;11.66;100.00;98524.16;4125312;28;20202;-46
2023/08/07 04:49:22;;;;;;;3.90;2.53;;;;;;;11.72;100.00;98528.56;4125421;28;20224;-50
2023/08/07 04:51:24;;;;;;;1.75;1.50;;;;;;;11.68;100.00;98521.97;4119734;28;20205;-47
2023/08/07 04:53:26;;;;;;;4.28;1.55;;;;;;;11.70;100.00;98530.75;4118950;28;20220;-46
2023/08/07 04:55:28;;;;;;;3.28;1.75;;;;;;;11.71;100.00;98529.66;4117181;28;20265;-48
2023/08/07 04:57:29;;;;;;;2.33;1.67;;;;;;;11.74;100.00;98526.41;4110184;28;20263;-47
2023/08/07 04:59:31;;;;;;;4.97;1.77;;;;;;;11.77;100.00;98533.31;4118359;28;20211;-48
2023/08/07 05:01:33;;;;;;;2.70;1.52;;;;;;;11.74;100.00;98525.59;4120838;28;20242;-47
2023/08/07 05:03:35;;;;;;;3.00;2.22;;;;;;;11.70;100.00;98525.28;4120652;28;20554;-46
2023/08/07 05:05:36;;;;;;;10.95;4.45;;;;;;;11.75;100.00;98524.50;4119284;28;20289;-47
2023/08/07 05:07:38;;;;;;;5.85;1.80;;;;;;;11.76;100.00;98524.25;4120037;28;20282;-48
2023/08/07 05:09:40;;;;;;;4.03;2.20;;;;;;;11.73;100.00;98523.94;4126498;28;20205;-46
2023/08/07 05:11:42;;;;;;;3.47;1.90;;;;;;;11.75;100.00;98519.84;4121034;28;20233;-48
2023/08/07 05:13:43;;;;;;;6.75;1.60;;;;;;;11.75;100.00;98522.59;4102528;28;20211;-47
2023/08/07 05:15:48;;;;;;;1.80;1.40;;;;;;;11.69;100.00;98518.13;4119936;28;20222;-46
2023/08/07 05:17:50;;;;;;;1.90;1.80;;;;;;;11.67;100.00;98531.28;4134109;28;20226;-48
2023/08/07 05:19:52;;;;;;;3.35;1.90;;;;;;;11.67;100.00;98528.53;4117282;28;20751;-47
2023/08/07 05:21:54;;;;;;;2.05;1.80;;;;;;;11.63;100.00;98527.38;4125779;28;20234;-47
2023/08/07 05:23:56;;;;;;;1.65;1.50;;;;;;;11.57;100.00;98528.38;4117376;28;20220;-46
2023/08/07 05:25:58;;;;;;;3.35;2.20;;;;;;;11.49;100.00;98534.31;4107612;28;20202;-46
2023/08/07 05:27:59;;;;;;;3.30;3.03;;;;;;;11.54;100.00;98537.13;4119919;28;20301;-48
2023/08/07 05:30:01;;;;;;;2.92;1.67;;;;;;;11.57;100.00;98536.59;4125451;28;20205;-48
2023/08/07 05:32:03;;;;;;;5.70;2.55;;;;;;;11.52;100.00;98536.53;4117649;28;20595;-47
2023/08/07 05:34:06;;;;;;;3.00;1.92;;;;;;;11.60;100.00;98544.34;4116530;28;21191;-46
2023/08/07 05:36:11;;;;;;;4.18;1.73;;;;;;;11.59;100.00;98544.59;4118526;28;20624;-47
2023/08/07 05:38:12;;;;;;;2.45;2.10;;;;;;;11.60;100.00;98543.50;4127398;28;20662;-47
2023/08/07 05:40:14;;;;;;;3.08;2.25;;;;;;;11.57;100.00;98546.75;4119620;28;20216;-46
2023/08/07 05:42:16;;;;;;;3.88;2.00;;;;;;;11.56;100.00;98543.16;4126361;28;20244;-48
2023/08/07 05:44:18;;;;;;;6.68;2.22;;;;;;;11.63;100.00;98543.81;4122166;28;20293;-47
2023/08/07 05:46:19;;;;;;;3.40;2.22;;;;;;;11.64;100.00;98548.22;4126003;28;20202;-46
2023/08/07 05:48:21;;;;;;;8.38;2.10;;;;;;;11.70;100.00;98549.13;4131546;28;20680;-46
2023/08/07 05:50:23;;;;;;;2.42;1.67;;;;;;;11.80;100.00;98546.50;4124509;28;20205;-47
2023/08/07 05:52:25;;;;;;;5.15;1.83;;;;;;;11.79;100.00;98559.38;4118855;28;20280;-46
2023/08/07 05:54:26;;;;;;;3.30;2.10;;;;;;;11.87;100.00;98545.22;4119754;28;20321;-47
2023/08/07 05:56:28;;;;;;;4.35;1.63;;;;;;;11.93;100.00;98566.13;4124034;28;20246;-47
2023/08/07 05:58:30;;;;;;;3.17;1.88;;;;;;;12.02;100.00;98560.97;4124080;28;20240;-48
2023/08/07 06:00:32;;;;;;;3.15;1.83;;;;;;;12.14;100.00;98565.25;4124973;28;20210;-47
2023/08/07 06:02:33;;;;;;;2.28;1.58;;;;;;;12.16;100.00;98563.06;4113745;28;20819;-47
2023/08/07 06:04:35;;;;;;;2.50;1.98;;;;;;;12.10;100.00;98572.31;4128508;28;20232;-47
2023/08/07 06:06:39;;;;;;;3.83;2.10;;;;;;;12.18;100.00;98571.84;4121725;28;20230;-47
2023/08/07 06:08:41;;;;;;;2.50;1.85;;;;;;;12.26;100.00;98582.38;4121399;28;20214;-48
2023/08/07 06:10:43;;;;;;;3.17;1.70;;;;;;;12.27;100.00;98570.31;4128872;28;20210;-47
2023/08/07 06:12:44;;;;;;;4.68;2.00;;;;;;;12.32;100.00;98578.59;4129138;28;20236;-47
2023/08/07 06:14:46;;;;;;;2.30;1.52;;;;;;;12.42;100.00;98580.59;4122893;28;20221;-47
2023/08/07 06:16:48;;;;;;;2.08;1.63;;;;;;;12.44;100.00;98576.50;4129112;28;20557;-50
2023/08/07 06:18:49;;;;;;;3.88;1.67;;;;;;;12.42;100.00;98584.19;4121479;28;20261;-49
2023/08/07 06:20:51;;;;;;;7.55;2.17;;;;;;;12.54;100.00;98587.59;4119763;28;20801;-49
2023/08/07 06:22:53;;;;;;;5.38;1.67;;;;;;;12.59;100.00;98584.91;4120026;28;20234;-47
2023/08/07 06:24:55;;;;;;;3.22;1.85;;;;;;;12.56;100.00;98585.41;4132073;28;20664;-47
2023/08/07 06:26:56;;;;;;;3.65;1.77;;;;;;;12.55;100.00;98588.41;4126740;28;20221;-47
2023/08/07 06:28:58;;;;;;;3.10;1.67;;;;;;;12.66;100.00;98591.00;4128683;28;20225;-47
2023/08/07 06:31:02;;;;;;;2.47;1.48;;;;;;;12.74;100.00;98584.19;4129538;28;20209;-47
2023/08/07 06:33:03;;;;;;;1.70;1.40;;;;;;;12.79;100.00;98585.06;4121642;28;20274;-47
2023/08/07 06:35:05;;;;;;;2.28;1.73;;;;;;;12.77;100.00;98595.47;4122948;28;20211;-47
2023/08/07 06:37:07;;;;;;;1.65;1.23;;;;;;;12.68;100.00;98596.22;4120830;28;20260;-46
2023/08/07 06:39:09;;;;;;;8.07;1.80;;;;;;;12.75;100.00;98608.63;4120732;28;20669;-47
2023/08/07 06:41:10;;;;;;;1.60;1.50;;;;;;;12.83;100.00;98608.16;4116589;28;20211;-47
2023/08/07 06:43:12;;;;;;;3.28;1.92;;;;;;;12.88;100.00;98610.94;4121359;28;20234;-46
2023/08/07 06:45:14;;;;;;;2.28;1.70;;;;;;;12.94;100.00;98612.66;4118782;28;20718;-46
2023/08/07 06:47:16;;;;;;;2.47;1.80;;;;;;;12.98;100.00;98613.78;4128678;28;20519;-47
2023/08/07 06:49:18;;;;;;;1.70;1.30;;;;;;;12.93;100.00;98613.75;4120640;28;20210;-49
2023/08/07 06:51:19;;;;;;;4.03;1.63;;;;;;;12.93;100.00;98610.16;4120655;28;20269;-46
2023/08/07 06:53:21;;;;;;;2.95;2.15;;;;;;;13.01;100.00;98610.53;4128660;28;20214;-47
2023/08/07 06:55:23;;;;;;;3.40;1.50;;;;;;;13.00;100.00;98611.63;4122466;28;20214;-47
2023/08/07 06:57:24;;;;;;;3.08;1.40;;;;;;;13.10;100.00;98619.94;4130938;28;20978;-47
2023/08/07 06:59:26;;;;;;;3.28;1.52;;;;;;;13.11;100.00;98618.03;4123523;28;20206;-47
2023/08/07 07:01:29;;;;;;;5.53;2.10;;;;;;;13.25;100.00;98620.03;4127043;28;20992;-46
2023/08/07 07:03:30;;;;;;;1.83;1.60;;;;;;;13.30;100.00;98617.31;4120207;28;20214;-48
2023/08/07 07:05:32;;;;;;;2.38;1.58;;;;;;;13.38;100.00;98616.81;4120590;28;20219;-48
2023/08/07 07:07:35;;;;;;;3.40;2.03;;;;;;;13.37;100.00;98622.59;4121163;28;20214;-47
2023/08/07 07:09:36;;;;;;;4.70;1.55;;;;;;;13.42;100.00;98623.47;4124544;28;20285;-47
2023/08/07 07:11:38;;;;;;;1.83;1.35;;;;;;;13.45;100.00;98628.44;4127790;28;20724;-47
2023/08/07 07:13:41;;;;;;;2.67;2.28;;;;;;;13.55;100.00;98628.50;4127858;28;20218;-49
2023/08/07 07:15:43;;;;;;;3.30;1.98;;;;;;;13.59;100.00;98626.88;4118551;28;20240;-47
2023/08/07 07:17:44;;;;;;;3.15;1.52;;;;;;;13.72;100.00;98620.06;4107090;28;20705;-47
2023/08/07 07:19:46;;;;;;;3.28;1.50;;;;;;;13.64;100.00;98621.38;4119770;28;20202;-46
2023/08/07 07:21:48;;;;;;;3.45;1.38;;;;;;;13.66;100.00;98630.22;4129229;28;20237;-47
2023/08/07 07:23:49;;;;;;;1.98;1.45;;;;;;;13.79;99.87;98613.22;4122437;28;20285;-47
2023/08/07 07:25:51;;;;;;;3.00;1.40;;;;;;;13.90;98.90;98623.16;4125961;28;20206;-49
2023/08/07 07:27:53;;;;;;;1.63;1.25;;;;;;;14.16;98.18;98624.91;4128145;28;20265;-49
2023/08/07 07:29:55;;;;;;;3.72;1.50;;;;;;;14.31;96.19;98622.22;4128971;28;20247;-47
2023/08/07 07:31:57;;;;;;;4.63;1.30;;;;;;;14.26;96.74;98627.75;4127177;28;20240;-48
2023/08/07 07:33:59;;;;;;;1.60;1.30;;;;;;;14.30;95.14;98631.59;4127534;28;20226;-49
2023/08/07 07:36:01;;;;;;;1.85;1.20;;;;;;;14.18;96.29;98642.00;4127171;28;20628;-48
2023/08/07 07:38:03;;;;;;;7.57;1.92;;;;;;;14.21;96.23;98627.72;4136523;28;20221;-47
2023/08/07 07:40:05;;;;;;;1.85;1.10;;;;;;;14.11;95.71;98638.66;4122741;28;20233;-48
2023/08/07 07:42:07;;;;;;;2.40;1.58;;;;;;;14.04;96.67;98634.50;4119974;28;20226;-47
2023/08/07 07:44:09;;;;;;;5.88;1.70;;;;;;;14.06;94.77;98633.16;4123679;28;20304;-47
2023/08/07 07:46:11;;;;;;;2.78;1.55;;;;;;;14.07;94.69;98632.03;4121173;28;20758;-46
2023/08/07 07:48:13;;;;;;;3.97;1.30;;;;;;;14.18;95.17;98632.91;4119889;28;20779;-47
2023/08/07 07:50:14;;;;;;;3.97;1.40;;;;;;;14.18;94.58;98633.75;4122540;28;20218;-48
2023/08/07 07:52:16;;;;;;;3.80;1.45;;;;;;;14.30;94.06;98631.59;4127606;28;20841;-48
2023/08/07 07:54:18;;;;;;;2.13;1.30;;;;;;;14.25;92.34;98639.84;4118731;28;20265;-46
2023/08/07 07:56:19;;;;;;;3.20;1.48;;;;;;;14.44;93.13;98643.75;4120846;28;20266;-47
2023/08/07 07:58:21;;;;;;;1.50;1.20;;;;;;;14.43;91.21;98639.34;4122711;28;20233;-48
2023/08/07 08:00:26;;;;;;;4.03;1.25;;;;;;;14.42;92.40;98645.94;4123119;28;20206;-48
2023/08/07 08:02:28;;;;;;;3.67;1.65;;;;;;;14.34;92.12;98638.22;4106187;28;20235;-49
2023/08/07 08:04:30;;;;;;;1.55;1.05;;;;;;;14.55;94.36;98645.44;4121649;28;20217;-47
2023/08/07 08:06:32;;;;;;;1.83;0.95;;;;;;;14.55;91.77;98634.41;4107191;28;20211;-46
2023/08/07 08:08:33;;;;;;;5.40;1.50;;;;;;;14.52;91.61;98650.66;4127519;28;20216;-47
2023/08/07 08:10:35;;;;;;;1.67;1.17;;;;;;;14.54;91.12;98653.94;4104801;28;20219;-47
2023/08/07 08:12:37;;;;;;;2.90;1.52;;;;;;;14.71;90.35;98658.13;4122830;28;20330;-47
2023/08/07 08:14:39;;;;;;;2.13;1.42;;;;;;;14.80;90.30;98656.50;4117275;28;20206;-49
2023/08/07 08:16:56;;;;;;;6.65;1.48;;;;;;;14.70;88.46;98664.72;4124682;28;20280;-48
2023/08/07 08:18:59;;;;;;;2.63;1.25;;;;;;;14.77;89.23;98659.78;4133204;28;20303;-46
2023/08/07 08:21:00;;;;;;;3.08;1.52;;;;;;;14.79;89.62;98679.66;4111592;28;20245;-49
2023/08/07 08:23:02;;;;;;;1.33;1.20;;;;;;;14.86;90.16;98676.59;4127959;28;20238;-48
2023/08/07 08:25:04;;;;;;;1.75;1.45;;;;;;;14.90;89.23;98673.03;4116908;28;20671;-49
2023/08/07 08:27:06;;;;;;;3.17;1.30;;;;;;;14.95;88.95;98673.03;4121912;28;20214;-46
2023/08/07 08:29:08;;;;;;;3.17;1.35;;;;;;;14.90;88.39;98670.25;4121415;28;20241;-48
2023/08/07 08:31:10;;;;;;;1.88;1.33;;;;;;;15.01;89.21;98671.94;4125617;28;20633;-47
2023/08/07 08:33:14;;;;;;;4.45;1.25;;;;;;;14.94;88.91;98679.66;4122681;28;20256;-46
2023/08/07 08:35:16;;;;;;;2.05;1.60;;;;;;;14.86;88.42;98669.19;4127024;28;20631;-49
2023/08/07 08:37:24;;;;;;;20.20;1.50;;;;;;;15.00;88.88;98674.97;4249037;27;20671;-47
2023/08/07 08:39:26;;;;;;;2.00;1.17;;;;;;;14.78;85.60;98672.47;4239056;27;20202;-48
2023/08/07 08:41:28;;;;;;;2.13;1.40;;;;;;;14.95;86.96;98673.03;4229931;27;20198;-48
2023/08/07 08:43:34;;;;;;;2.83;1.05;;;;;;;15.00;86.34;98674.97;4201554;28;20261;-48
2023/08/07 08:45:37;;;;;;;2.25;1.23;;;;;;;15.10;88.22;98686.00;4217161;28;20246;-48
2023/08/07 08:47:41;;;;;;;1.73;1.00;;;;;;;15.25;87.76;98684.09;4219555;28;20207;-48
2023/08/07 08:49:47;;;;;;;4.07;1.15;;;;;;;15.26;87.16;98680.22;4217188;28;20218;-48
2023/08/07 08:51:49;;;;;;;5.25;1.45;;;;;;;15.24;87.43;98682.41;4223237;28;20691;-48
2023/08/07 08:53:53;;;;;;;4.10;1.08;;;;;;;15.23;86.35;98686.28;4198061;28;20207;-47
2023/08/07 08:55:55;;;;;;;3.58;1.15;;;;;;;15.13;85.12;98680.78;4205557;28;20225;-47
2023/08/07 08:58:00;;;;;;;2.17;1.38;;;;;;;15.27;86.97;98686.56;4206118;28;20766;-49
2023/08/07 09:00:14;;;;;;;3.08;1.13;;;;;;;15.27;85.65;98694.81;4209240;28;20209;-49
2023/08/07 09:02:17;;;;;;;1.70;1.30;;;;;;;15.35;84.46;98691.56;4221092;28;20283;-48
2023/08/07 09:04:19;;;;;;;2.47;1.52;;;;;;;15.57;84.54;98692.09;4237828;28;20716;-47
2023/08/07 09:06:20;;;;;;;2.35;1.20;;;;;;;15.66;83.43;98691.25;4221971;28;20206;-47
2023/08/07 09:08:22;;;;;;;1.98;1.00;;;;;;;15.89;83.36;98684.31;4200415;28;20207;-47
2023/08/07 09:10:24;;;;;;;2.08;1.20;;;;;;;16.04;82.62;98687.84;4218638;28;20210;-48
2023/08/07 09:12:27;;;;;;;2.17;1.35;;;;;;;16.29;83.29;98687.75;4215383;28;20230;-48
2023/08/07 09:14:31;;;;;;;1.65;1.02;;;;;;;16.21;80.42;98691.09;4201550;28;20598;-48
2023/08/07 09:16:33;;;;;;;2.83;1.50;;;;;;;16.10;79.16;98683.94;4222512;28;20226;-50
2023/08/07 09:18:35;;;;;;;1.80;1.27;;;;;;;16.19;80.22;98695.25;4218647;28;20290;-48
2023/08/07 09:20:40;;;;;;;2.45;0.90;;;;;;;16.06;78.86;98691.16;4224209;28;20216;-47
2023/08/07 09:22:42;;;;;;;2.58;1.10;;;;;;;16.13;79.55;98688.09;4215045;28;20281;-49
2023/08/07 09:24:44;;;;;;;2.95;1.23;;;;;;;16.08;79.13;98682.56;4237679;27;20206;-48
2023/08/07 09:26:46;;;;;;;2.70;1.20;;;;;;;16.12;79.06;98694.72;4217668;28;20202;-49
2023/08/07 09:28:47;;;;;;;2.15;1.30;;;;;;;15.95;78.13;98688.72;4200398;28;20210;-48
2023/08/07 09:30:52;;;;;;;1.45;0.90;;;;;;;16.01;79.13;98696.69;4198195;28;20215;-49